sensor_id;sensor_type;location;lat;lon;timestamp;temperature;humidity
42615;DHT22;28754;47.700;7.924;2023-07-24T00:01:39;20.80;99.90
42615;DHT22;28754;47.700;7.924;2023-07-24T00:04:26;21.00;99.90
42615;DHT22;28754;47.700;7.924;2023-07-24T00:07:12;21.10;99.90
42615;DHT22;28754;47.700;7.924;2023-07-24T00:09:59;21.30;99.90
42615;DHT22;28754;47.700;7.924;2023-07-24T00:12:46;21.40;99.90
42615;DHT22;28754;47.700;7.924;2023-07-24T00:15:32;21.50;99.90
42615;DHT22;28754;47.700;7.924;2023-07-24T00:18:19;21.50;99.90
42615;DHT22;28754;47.700;7.924;2023-07-24T00:21:06;21.20;99.90
42615;DHT22;28754;47.700;7.924;2023-07-24T00:23:52;20.80;99.90
42615;DHT22;28754;47.700;7.924;2023-07-24T00:26:39;20.50;99.90
42615;DHT22;28754;47.700;7.924;2023-07-24T00:29:25;20.20;99.90
42615;DHT22;28754;47.700;7.924;2023-07-24T00:32:12;20.00;99.90
42615;DHT22;28754;47.700;7.924;2023-07-24T00:34:59;20.10;99.90
42615;DHT22;28754;47.700;7.924;2023-07-24T00:37:45;20.00;99.90
42615;DHT22;28754;47.700;7.924;2023-07-24T00:40:32;20.10;99.90
42615;DHT22;28754;47.700;7.924;2023-07-24T00:43:19;20.10;99.90
42615;DHT22;28754;47.700;7.924;2023-07-24T00:46:05;20.20;99.90
42615;DHT22;28754;47.700;7.924;2023-07-24T00:48:52;20.20;99.90
42615;DHT22;28754;47.700;7.924;2023-07-24T00:51:40;20.20;99.90
42615;DHT22;28754;47.700;7.924;2023-07-24T00:54:30;20.10;99.90
42615;DHT22;28754;47.700;7.924;2023-07-24T00:57:19;20.00;99.90
42615;DHT22;28754;47.700;7.924;2023-07-24T01:00:06;20.00;99.90
42615;DHT22;28754;47.700;7.924;2023-07-24T01:02:54;20.00;99.90
42615;DHT22;28754;47.700;7.924;2023-07-24T01:05:42;20.00;99.90
42615;DHT22;28754;47.700;7.924;2023-07-24T01:08:29;20.00;99.90
42615;DHT22;28754;47.700;7.924;2023-07-24T01:11:19;20.00;99.90
42615;DHT22;28754;47.700;7.924;2023-07-24T01:14:19;20.00;99.90
42615;DHT22;28754;47.700;7.924;2023-07-24T01:17:20;20.00;99.90
42615;DHT22;28754;47.700;7.924;2023-07-24T01:20:11;20.00;99.90
42615;DHT22;28754;47.700;7.924;2023-07-24T01:26:08;20.00;99.90
42615;DHT22;28754;47.700;7.924;2023-07-24T01:28:58;20.00;99.90
42615;DHT22;28754;47.700;7.924;2023-07-24T01:31:45;20.10;99.90
42615;DHT22;28754;47.700;7.924;2023-07-24T01:34:33;20.10;99.90
42615;DHT22;28754;47.700;7.924;2023-07-24T01:37:20;20.10;99.90
42615;DHT22;28754;47.700;7.924;2023-07-24T01:40:10;20.10;99.90
42615;DHT22;28754;47.700;7.924;2023-07-24T01:42:57;20.10;99.90
42615;DHT22;28754;47.700;7.924;2023-07-24T01:45:45;20.10;99.90
42615;DHT22;28754;47.700;7.924;2023-07-24T01:48:32;20.20;99.90
42615;DHT22;28754;47.700;7.924;2023-07-24T01:51:19;20.30;99.90
42615;DHT22;28754;47.700;7.924;2023-07-24T01:54:06;20.30;99.90
42615;DHT22;28754;47.700;7.924;2023-07-24T01:56:52;20.30;99.90
42615;DHT22;28754;47.700;7.924;2023-07-24T01:59:39;20.40;99.90
42615;DHT22;28754;47.700;7.924;2023-07-24T02:02:26;20.40;99.90
42615;DHT22;28754;47.700;7.924;2023-07-24T02:05:21;20.30;99.90
42615;DHT22;28754;47.700;7.924;2023-07-24T02:08:09;20.30;99.90
42615;DHT22;28754;47.700;7.924;2023-07-24T02:10:56;20.30;99.90
42615;DHT22;28754;47.700;7.924;2023-07-24T02:13:46;20.30;99.90
42615;DHT22;28754;47.700;7.924;2023-07-24T02:16:35;20.30;99.90
42615;DHT22;28754;47.700;7.924;2023-07-24T02:19:22;20.20;99.90
42615;DHT22;28754;47.700;7.924;2023-07-24T02:22:08;20.20;99.90
42615;DHT22;28754;47.700;7.924;2023-07-24T02:24:55;20.20;99.90
42615;DHT22;28754;47.700;7.924;2023-07-24T02:27:43;20.30;99.90
42615;DHT22;28754;47.700;7.924;2023-07-24T02:30:30;20.40;99.90
42615;DHT22;28754;47.700;7.924;2023-07-24T02:33:17;20.30;99.90
42615;DHT22;28754;47.700;7.924;2023-07-24T02:36:04;20.30;99.90
42615;DHT22;28754;47.700;7.924;2023-07-24T02:38:50;20.40;99.90
42615;DHT22;28754;47.700;7.924;2023-07-24T02:41:37;20.40;99.90
42615;DHT22;28754;47.700;7.924;2023-07-24T02:44:24;20.40;99.90
42615;DHT22;28754;47.700;7.924;2023-07-24T02:47:10;20.40;99.90
42615;DHT22;28754;47.700;7.924;2023-07-24T02:49:57;20.40;99.90
42615;DHT22;28754;47.700;7.924;2023-07-24T02:52:44;20.40;99.90
42615;DHT22;28754;47.700;7.924;2023-07-24T02:55:31;20.40;99.90
42615;DHT22;28754;47.700;7.924;2023-07-24T02:58:17;20.50;99.90
42615;DHT22;28754;47.700;7.924;2023-07-24T03:01:05;20.50;99.90
42615;DHT22;28754;47.700;7.924;2023-07-24T03:03:53;20.50;99.90
42615;DHT22;28754;47.700;7.924;2023-07-24T03:06:40;20.50;99.90
42615;DHT22;28754;47.700;7.924;2023-07-24T03:09:27;20.50;99.90
42615;DHT22;28754;47.700;7.924;2023-07-24T03:12:16;20.40;99.90
42615;DHT22;28754;47.700;7.924;2023-07-24T03:15:04;20.40;99.90
42615;DHT22;28754;47.700;7.924;2023-07-24T03:17:51;20.40;99.90
42615;DHT22;28754;47.700;7.924;2023-07-24T03:20:37;20.40;99.90
42615;DHT22;28754;47.700;7.924;2023-07-24T03:23:24;20.40;99.90
42615;DHT22;28754;47.700;7.924;2023-07-24T03:26:11;20.50;99.90
42615;DHT22;28754;47.700;7.924;2023-07-24T03:28:57;20.50;99.90
42615;DHT22;28754;47.700;7.924;2023-07-24T03:31:44;20.50;99.90
42615;DHT22;28754;47.700;7.924;2023-07-24T03:34:31;20.50;99.90
42615;DHT22;28754;47.700;7.924;2023-07-24T03:37:19;20.50;99.90
42615;DHT22;28754;47.700;7.924;2023-07-24T03:40:06;20.50;99.90
42615;DHT22;28754;47.700;7.924;2023-07-24T03:42:53;20.50;99.90
42615;DHT22;28754;47.700;7.924;2023-07-24T03:45:40;20.50;99.90
42615;DHT22;28754;47.700;7.924;2023-07-24T03:48:26;20.50;99.90
42615;DHT22;28754;47.700;7.924;2023-07-24T03:51:13;20.50;99.90
42615;DHT22;28754;47.700;7.924;2023-07-24T03:54:00;20.50;99.90
42615;DHT22;28754;47.700;7.924;2023-07-24T03:56:46;20.50;99.90
42615;DHT22;28754;47.700;7.924;2023-07-24T03:59:33;20.50;99.90
42615;DHT22;28754;47.700;7.924;2023-07-24T04:02:20;20.50;99.90
42615;DHT22;28754;47.700;7.924;2023-07-24T04:05:06;20.50;99.90
42615;DHT22;28754;47.700;7.924;2023-07-24T04:07:54;20.50;99.90
42615;DHT22;28754;47.700;7.924;2023-07-24T04:10:41;20.50;99.90
42615;DHT22;28754;47.700;7.924;2023-07-24T04:13:28;20.50;99.90
42615;DHT22;28754;47.700;7.924;2023-07-24T04:16:14;20.50;99.90
42615;DHT22;28754;47.700;7.924;2023-07-24T04:19:01;20.40;99.90
42615;DHT22;28754;47.700;7.924;2023-07-24T04:21:48;20.50;99.90
42615;DHT22;28754;47.700;7.924;2023-07-24T04:24:34;20.40;99.90
42615;DHT22;28754;47.700;7.924;2023-07-24T04:27:21;20.30;99.90
42615;DHT22;28754;47.700;7.924;2023-07-24T04:30:08;20.20;99.90
42615;DHT22;28754;47.700;7.924;2023-07-24T04:32:55;20.10;99.90
42615;DHT22;28754;47.700;7.924;2023-07-24T04:35:41;19.80;99.90
42615;DHT22;28754;47.700;7.924;2023-07-24T04:38:28;19.60;99.90
42615;DHT22;28754;47.700;7.924;2023-07-24T04:41:15;19.30;99.90
42615;DHT22;28754;47.700;7.924;2023-07-24T04:44:02;18.30;99.90
42615;DHT22;28754;47.700;7.924;2023-07-24T04:46:49;17.60;99.90
42615;DHT22;28754;47.700;7.924;2023-07-24T04:49:36;17.50;99.90
42615;DHT22;28754;47.700;7.924;2023-07-24T04:52:23;17.10;99.90
42615;DHT22;28754;47.700;7.924;2023-07-24T04:55:09;17.10;99.90
42615;DHT22;28754;47.700;7.924;2023-07-24T04:57:56;17.20;99.90
42615;DHT22;28754;47.700;7.924;2023-07-24T05:00:43;16.90;99.90
42615;DHT22;28754;47.700;7.924;2023-07-24T05:03:30;17.20;99.90
42615;DHT22;28754;47.700;7.924;2023-07-24T05:06:17;17.10;99.90
42615;DHT22;28754;47.700;7.924;2023-07-24T05:09:04;17.10;99.90
42615;DHT22;28754;47.700;7.924;2023-07-24T05:11:51;17.40;99.90
42615;DHT22;28754;47.700;7.924;2023-07-24T05:14:37;17.50;99.90
42615;DHT22;28754;47.700;7.924;2023-07-24T05:17:24;17.70;99.90
42615;DHT22;28754;47.700;7.924;2023-07-24T05:20:11;17.60;99.90
42615;DHT22;28754;47.700;7.924;2023-07-24T05:22:58;17.50;99.90
42615;DHT22;28754;47.700;7.924;2023-07-24T05:25:44;17.60;99.90
42615;DHT22;28754;47.700;7.924;2023-07-24T05:28:32;17.60;99.90
42615;DHT22;28754;47.700;7.924;2023-07-24T05:31:19;17.70;99.90
42615;DHT22;28754;47.700;7.924;2023-07-24T05:34:06;17.70;99.90
42615;DHT22;28754;47.700;7.924;2023-07-24T05:36:52;17.70;99.90
42615;DHT22;28754;47.700;7.924;2023-07-24T05:39:39;17.60;99.90
42615;DHT22;28754;47.700;7.924;2023-07-24T05:42:26;17.70;99.90
42615;DHT22;28754;47.700;7.924;2023-07-24T05:45:12;17.80;99.90
42615;DHT22;28754;47.700;7.924;2023-07-24T05:48:00;18.00;99.90
42615;DHT22;28754;47.700;7.924;2023-07-24T05:50:47;18.20;99.90
42615;DHT22;28754;47.700;7.924;2023-07-24T05:53:34;18.50;99.90
42615;DHT22;28754;47.700;7.924;2023-07-24T05:56:21;18.60;99.90
42615;DHT22;28754;47.700;7.924;2023-07-24T05:59:07;18.70;99.90
42615;DHT22;28754;47.700;7.924;2023-07-24T06:01:54;18.90;99.90
42615;DHT22;28754;47.700;7.924;2023-07-24T06:04:40;19.00;99.90
42615;DHT22;28754;47.700;7.924;2023-07-24T06:07:27;19.20;99.90
42615;DHT22;28754;47.700;7.924;2023-07-24T06:10:14;19.30;99.90
42615;DHT22;28754;47.700;7.924;2023-07-24T06:13:00;19.60;99.90
42615;DHT22;28754;47.700;7.924;2023-07-24T06:15:48;19.90;99.90
42615;DHT22;28754;47.700;7.924;2023-07-24T06:18:35;20.10;99.90
42615;DHT22;28754;47.700;7.924;2023-07-24T06:21:22;20.50;99.90
42615;DHT22;28754;47.700;7.924;2023-07-24T06:24:09;20.80;99.90
42615;DHT22;28754;47.700;7.924;2023-07-24T06:26:58;20.50;99.90
42615;DHT22;28754;47.700;7.924;2023-07-24T06:29:45;20.50;99.90
42615;DHT22;28754;47.700;7.924;2023-07-24T06:32:31;20.40;99.90
42615;DHT22;28754;47.700;7.924;2023-07-24T06:35:18;20.20;99.90
42615;DHT22;28754;47.700;7.924;2023-07-24T06:38:05;20.20;99.90
42615;DHT22;28754;47.700;7.924;2023-07-24T06:40:51;20.00;99.90
42615;DHT22;28754;47.700;7.924;2023-07-24T06:43:38;19.80;99.90
42615;DHT22;28754;47.700;7.924;2023-07-24T06:46:25;19.70;99.90
42615;DHT22;28754;47.700;7.924;2023-07-24T06:49:11;19.80;99.90
42615;DHT22;28754;47.700;7.924;2023-07-24T06:51:58;19.90;99.90
42615;DHT22;28754;47.700;7.924;2023-07-24T06:54:45;20.20;99.90
42615;DHT22;28754;47.700;7.924;2023-07-24T06:57:31;20.40;99.90
42615;DHT22;28754;47.700;7.924;2023-07-24T07:00:18;20.50;99.90
42615;DHT22;28754;47.700;7.924;2023-07-24T07:03:05;20.70;99.90
42615;DHT22;28754;47.700;7.924;2023-07-24T07:05:58;20.60;99.90
42615;DHT22;28754;47.700;7.924;2023-07-24T07:08:45;20.70;99.90
42615;DHT22;28754;47.700;7.924;2023-07-24T07:11:32;20.60;99.90
42615;DHT22;28754;47.700;7.924;2023-07-24T07:14:19;20.70;99.90
42615;DHT22;28754;47.700;7.924;2023-07-24T07:17:05;20.90;99.90
42615;DHT22;28754;47.700;7.924;2023-07-24T07:19:52;20.90;99.90
42615;DHT22;28754;47.700;7.924;2023-07-24T07:22:39;20.70;99.90
42615;DHT22;28754;47.700;7.924;2023-07-24T07:25:25;20.40;99.90
42615;DHT22;28754;47.700;7.924;2023-07-24T07:28:13;20.40;99.90
42615;DHT22;28754;47.700;7.924;2023-07-24T07:31:00;20.10;99.90
42615;DHT22;28754;47.700;7.924;2023-07-24T07:33:47;19.90;99.90
42615;DHT22;28754;47.700;7.924;2023-07-24T07:36:34;19.70;99.90
42615;DHT22;28754;47.700;7.924;2023-07-24T07:39:21;19.60;99.90
42615;DHT22;28754;47.700;7.924;2023-07-24T07:42:07;19.80;99.90
42615;DHT22;28754;47.700;7.924;2023-07-24T07:44:54;19.60;99.90
42615;DHT22;28754;47.700;7.924;2023-07-24T07:47:41;19.50;99.90
42615;DHT22;28754;47.700;7.924;2023-07-24T07:50:27;19.70;99.90
42615;DHT22;28754;47.700;7.924;2023-07-24T07:53:14;19.80;99.90
42615;DHT22;28754;47.700;7.924;2023-07-24T07:56:01;20.00;99.90
42615;DHT22;28754;47.700;7.924;2023-07-24T07:58:48;20.00;99.90
42615;DHT22;28754;47.700;7.924;2023-07-24T08:01:36;20.10;99.90
42615;DHT22;28754;47.700;7.924;2023-07-24T08:04:25;20.40;99.90
42615;DHT22;28754;47.700;7.924;2023-07-24T08:07:12;20.60;99.90
42615;DHT22;28754;47.700;7.924;2023-07-24T08:09:58;20.90;99.90
42615;DHT22;28754;47.700;7.924;2023-07-24T08:12:45;20.90;99.90
42615;DHT22;28754;47.700;7.924;2023-07-24T08:15:36;21.10;99.90
42615;DHT22;28754;47.700;7.924;2023-07-24T08:18:23;21.30;99.90
42615;DHT22;28754;47.700;7.924;2023-07-24T08:21:10;21.40;99.90
42615;DHT22;28754;47.700;7.924;2023-07-24T08:23:56;21.50;99.90
42615;DHT22;28754;47.700;7.924;2023-07-24T08:26:44;21.70;99.90
42615;DHT22;28754;47.700;7.924;2023-07-24T08:29:31;22.10;99.90
42615;DHT22;28754;47.700;7.924;2023-07-24T08:32:18;21.80;99.90
42615;DHT22;28754;47.700;7.924;2023-07-24T08:35:06;21.90;99.90
42615;DHT22;28754;47.700;7.924;2023-07-24T08:37:52;21.90;99.90
42615;DHT22;28754;47.700;7.924;2023-07-24T08:40:39;22.10;99.90
42615;DHT22;28754;47.700;7.924;2023-07-24T08:43:26;22.10;99.90
42615;DHT22;28754;47.700;7.924;2023-07-24T08:46:16;22.80;99.90
42615;DHT22;28754;47.700;7.924;2023-07-24T08:49:04;23.00;99.90
42615;DHT22;28754;47.700;7.924;2023-07-24T08:51:50;23.20;99.90
42615;DHT22;28754;47.700;7.924;2023-07-24T08:54:38;22.90;99.90
42615;DHT22;28754;47.700;7.924;2023-07-24T08:57:25;23.00;99.90
42615;DHT22;28754;47.700;7.924;2023-07-24T09:00:12;23.10;99.90
42615;DHT22;28754;47.700;7.924;2023-07-24T09:03:00;23.10;99.90
42615;DHT22;28754;47.700;7.924;2023-07-24T09:05:47;22.90;99.90
42615;DHT22;28754;47.700;7.924;2023-07-24T09:08:41;22.50;99.90
42615;DHT22;28754;47.700;7.924;2023-07-24T09:11:29;22.40;99.90
42615;DHT22;28754;47.700;7.924;2023-07-24T09:14:25;22.30;99.90
42615;DHT22;28754;47.700;7.924;2023-07-24T09:17:12;22.30;99.90
42615;DHT22;28754;47.700;7.924;2023-07-24T09:19:59;21.60;99.90
42615;DHT22;28754;47.700;7.924;2023-07-24T09:22:54;21.10;99.90
42615;DHT22;28754;47.700;7.924;2023-07-24T09:25:43;21.20;99.90
42615;DHT22;28754;47.700;7.924;2023-07-24T09:28:30;21.20;99.90
42615;DHT22;28754;47.700;7.924;2023-07-24T09:31:16;20.40;99.90
42615;DHT22;28754;47.700;7.924;2023-07-24T09:34:13;19.50;99.90
42615;DHT22;28754;47.700;7.924;2023-07-24T09:37:00;19.20;99.90
42615;DHT22;28754;47.700;7.924;2023-07-24T09:39:47;19.00;99.90
42615;DHT22;28754;47.700;7.924;2023-07-24T09:42:35;18.60;99.90
42615;DHT22;28754;47.700;7.924;2023-07-24T09:45:23;18.40;99.90
42615;DHT22;28754;47.700;7.924;2023-07-24T09:48:13;18.30;99.90
42615;DHT22;28754;47.700;7.924;2023-07-24T09:51:01;18.30;99.90
42615;DHT22;28754;47.700;7.924;2023-07-24T09:53:55;18.10;99.90
42615;DHT22;28754;47.700;7.924;2023-07-24T09:56:45;18.20;99.90
42615;DHT22;28754;47.700;7.924;2023-07-24T09:59:32;18.40;99.90
42615;DHT22;28754;47.700;7.924;2023-07-24T10:02:19;18.40;99.90
42615;DHT22;28754;47.700;7.924;2023-07-24T10:14:07;18.00;99.90
42615;DHT22;28754;47.700;7.924;2023-07-24T10:16:55;17.80;99.90
42615;DHT22;28754;47.700;7.924;2023-07-24T10:24:10;17.70;99.90
42615;DHT22;28754;47.700;7.924;2023-07-24T10:26:57;17.50;99.90
42615;DHT22;28754;47.700;7.924;2023-07-24T10:29:43;17.70;99.90
42615;DHT22;28754;47.700;7.924;2023-07-24T10:32:33;17.70;99.90
42615;DHT22;28754;47.700;7.924;2023-07-24T10:35:20;18.20;99.90
42615;DHT22;28754;47.700;7.924;2023-07-24T10:38:09;18.50;99.90
42615;DHT22;28754;47.700;7.924;2023-07-24T10:41:02;18.90;99.90
42615;DHT22;28754;47.700;7.924;2023-07-24T10:43:51;18.80;99.90
42615;DHT22;28754;47.700;7.924;2023-07-24T10:46:45;19.20;99.90
42615;DHT22;28754;47.700;7.924;2023-07-24T10:49:31;19.50;99.90
42615;DHT22;28754;47.700;7.924;2023-07-24T10:52:18;19.80;99.90
42615;DHT22;28754;47.700;7.924;2023-07-24T10:55:14;19.60;99.90
42615;DHT22;28754;47.700;7.924;2023-07-24T10:58:00;19.70;99.90
42615;DHT22;28754;47.700;7.924;2023-07-24T11:00:47;19.50;99.90
42615;DHT22;28754;47.700;7.924;2023-07-24T11:03:39;19.70;99.90
42615;DHT22;28754;47.700;7.924;2023-07-24T11:06:27;19.80;99.90
42615;DHT22;28754;47.700;7.924;2023-07-24T11:09:14;19.80;99.90
42615;DHT22;28754;47.700;7.924;2023-07-24T11:12:15;19.50;99.90
42615;DHT22;28754;47.700;7.924;2023-07-24T11:15:04;19.30;99.90
42615;DHT22;28754;47.700;7.924;2023-07-24T11:17:51;19.30;99.90
42615;DHT22;28754;47.700;7.924;2023-07-24T11:20:39;19.50;99.90
42615;DHT22;28754;47.700;7.924;2023-07-24T11:23:30;19.40;99.90
42615;DHT22;28754;47.700;7.924;2023-07-24T11:26:22;18.90;99.90
42615;DHT22;28754;47.700;7.924;2023-07-24T11:29:13;18.80;99.90
42615;DHT22;28754;47.700;7.924;2023-07-24T11:32:00;18.60;99.90
42615;DHT22;28754;47.700;7.924;2023-07-24T11:34:48;18.40;99.90
42615;DHT22;28754;47.700;7.924;2023-07-24T11:37:36;18.20;99.90
42615;DHT22;28754;47.700;7.924;2023-07-24T11:40:32;18.50;99.90
42615;DHT22;28754;47.700;7.924;2023-07-24T11:43:22;18.90;99.90
42615;DHT22;28754;47.700;7.924;2023-07-24T11:46:10;19.10;99.90
42615;DHT22;28754;47.700;7.924;2023-07-24T11:48:57;18.90;99.90
42615;DHT22;28754;47.700;7.924;2023-07-24T11:51:44;19.10;99.90
42615;DHT22;28754;47.700;7.924;2023-07-24T11:54:30;19.20;99.90
42615;DHT22;28754;47.700;7.924;2023-07-24T11:57:19;19.40;99.90
42615;DHT22;28754;47.700;7.924;2023-07-24T12:00:18;19.20;99.90
42615;DHT22;28754;47.700;7.924;2023-07-24T12:03:06;19.30;99.90
42615;DHT22;28754;47.700;7.924;2023-07-24T12:05:54;19.40;99.90
42615;DHT22;28754;47.700;7.924;2023-07-24T12:08:41;19.60;99.90
42615;DHT22;28754;47.700;7.924;2023-07-24T12:11:28;19.60;99.90
42615;DHT22;28754;47.700;7.924;2023-07-24T12:14:14;19.90;99.90
42615;DHT22;28754;47.700;7.924;2023-07-24T12:17:02;20.50;99.90
42615;DHT22;28754;47.700;7.924;2023-07-24T12:19:49;20.30;99.90
42615;DHT22;28754;47.700;7.924;2023-07-24T12:22:37;20.00;99.90
42615;DHT22;28754;47.700;7.924;2023-07-24T12:25:24;19.60;99.90
42615;DHT22;28754;47.700;7.924;2023-07-24T12:28:11;19.10;99.90
42615;DHT22;28754;47.700;7.924;2023-07-24T12:30:58;18.90;99.90
42615;DHT22;28754;47.700;7.924;2023-07-24T12:33:44;18.70;99.90
42615;DHT22;28754;47.700;7.924;2023-07-24T12:36:31;18.70;99.90
42615;DHT22;28754;47.700;7.924;2023-07-24T12:39:18;18.70;99.90
42615;DHT22;28754;47.700;7.924;2023-07-24T12:42:05;18.90;99.90
42615;DHT22;28754;47.700;7.924;2023-07-24T12:44:52;18.80;99.90
42615;DHT22;28754;47.700;7.924;2023-07-24T12:47:39;19.10;99.90
42615;DHT22;28754;47.700;7.924;2023-07-24T12:50:25;19.20;99.90
42615;DHT22;28754;47.700;7.924;2023-07-24T12:53:12;19.20;99.90
42615;DHT22;28754;47.700;7.924;2023-07-24T12:55:59;19.10;99.90
42615;DHT22;28754;47.700;7.924;2023-07-24T12:58:45;18.80;99.90
42615;DHT22;28754;47.700;7.924;2023-07-24T13:01:32;18.60;99.90
42615;DHT22;28754;47.700;7.924;2023-07-24T13:04:19;18.50;99.90
42615;DHT22;28754;47.700;7.924;2023-07-24T13:07:06;18.30;99.90
42615;DHT22;28754;47.700;7.924;2023-07-24T13:09:53;18.10;99.90
42615;DHT22;28754;47.700;7.924;2023-07-24T13:12:39;18.10;99.90
42615;DHT22;28754;47.700;7.924;2023-07-24T13:15:26;18.00;99.90
42615;DHT22;28754;47.700;7.924;2023-07-24T13:18:14;18.10;99.90
42615;DHT22;28754;47.700;7.924;2023-07-24T13:21:02;18.10;99.90
42615;DHT22;28754;47.700;7.924;2023-07-24T13:23:49;18.20;99.90
42615;DHT22;28754;47.700;7.924;2023-07-24T13:31:18;17.80;99.90
42615;DHT22;28754;47.700;7.924;2023-07-24T13:34:05;17.60;99.90
42615;DHT22;28754;47.700;7.924;2023-07-24T13:36:53;17.40;99.90
42615;DHT22;28754;47.700;7.924;2023-07-24T13:39:40;17.40;99.90
42615;DHT22;28754;47.700;7.924;2023-07-24T13:46:54;17.60;99.90
42615;DHT22;28754;47.700;7.924;2023-07-24T13:49:42;17.60;99.90
42615;DHT22;28754;47.700;7.924;2023-07-24T13:52:29;17.50;99.90
42615;DHT22;28754;47.700;7.924;2023-07-24T13:55:16;17.20;99.90
42615;DHT22;28754;47.700;7.924;2023-07-24T13:58:03;17.20;99.90
42615;DHT22;28754;47.700;7.924;2023-07-24T14:00:50;17.20;99.90
42615;DHT22;28754;47.700;7.924;2023-07-24T14:03:36;17.20;99.90
42615;DHT22;28754;47.700;7.924;2023-07-24T14:06:23;17.00;99.90
42615;DHT22;28754;47.700;7.924;2023-07-24T14:09:11;17.00;99.90
42615;DHT22;28754;47.700;7.924;2023-07-24T14:11:59;17.10;99.90
42615;DHT22;28754;47.700;7.924;2023-07-24T14:14:46;17.20;99.90
42615;DHT22;28754;47.700;7.924;2023-07-24T14:17:33;17.30;99.90
42615;DHT22;28754;47.700;7.924;2023-07-24T14:20:24;17.40;99.90
42615;DHT22;28754;47.700;7.924;2023-07-24T14:23:11;17.30;99.90
42615;DHT22;28754;47.700;7.924;2023-07-24T14:25:57;17.60;99.90
42615;DHT22;28754;47.700;7.924;2023-07-24T14:28:44;17.90;99.90
42615;DHT22;28754;47.700;7.924;2023-07-24T14:31:48;18.30;99.90
42615;DHT22;28754;47.700;7.924;2023-07-24T14:34:35;18.80;99.90
42615;DHT22;28754;47.700;7.924;2023-07-24T14:37:22;19.10;99.90
42615;DHT22;28754;47.700;7.924;2023-07-24T14:40:10;19.40;99.90
42615;DHT22;28754;47.700;7.924;2023-07-24T14:43:00;18.90;99.90
42615;DHT22;28754;47.700;7.924;2023-07-24T14:45:49;18.90;99.90
42615;DHT22;28754;47.700;7.924;2023-07-24T14:48:38;18.80;99.90
42615;DHT22;28754;47.700;7.924;2023-07-24T14:55:34;18.00;99.90
42615;DHT22;28754;47.700;7.924;2023-07-24T14:58:31;18.60;99.90
42615;DHT22;28754;47.700;7.924;2023-07-24T15:01:23;19.30;99.90
42615;DHT22;28754;47.700;7.924;2023-07-24T15:05:03;19.00;99.90
42615;DHT22;28754;47.700;7.924;2023-07-24T15:09:07;18.30;99.90
42615;DHT22;28754;47.700;7.924;2023-07-24T15:12:22;18.50;99.90
42615;DHT22;28754;47.700;7.924;2023-07-24T15:15:16;18.50;99.90
42615;DHT22;28754;47.700;7.924;2023-07-24T15:18:20;18.20;99.90
42615;DHT22;28754;47.700;7.924;2023-07-24T15:26:31;18.80;99.90
42615;DHT22;28754;47.700;7.924;2023-07-24T15:29:49;19.10;99.90
42615;DHT22;28754;47.700;7.924;2023-07-24T15:33:00;19.00;99.90
42615;DHT22;28754;47.700;7.924;2023-07-24T15:36:40;18.70;99.90
42615;DHT22;28754;47.700;7.924;2023-07-24T15:39:27;18.50;99.90
42615;DHT22;28754;47.700;7.924;2023-07-24T15:42:14;18.40;99.90
42615;DHT22;28754;47.700;7.924;2023-07-24T15:45:01;18.20;99.90
42615;DHT22;28754;47.700;7.924;2023-07-24T15:47:47;18.00;99.90
42615;DHT22;28754;47.700;7.924;2023-07-24T15:50:34;18.20;99.90
42615;DHT22;28754;47.700;7.924;2023-07-24T15:53:21;18.00;99.90
42615;DHT22;28754;47.700;7.924;2023-07-24T15:56:07;18.10;99.90
42615;DHT22;28754;47.700;7.924;2023-07-24T15:58:54;18.00;99.90
42615;DHT22;28754;47.700;7.924;2023-07-24T16:01:41;18.20;99.90
42615;DHT22;28754;47.700;7.924;2023-07-24T16:04:27;18.10;99.90
42615;DHT22;28754;47.700;7.924;2023-07-24T16:07:14;18.30;99.90
42615;DHT22;28754;47.700;7.924;2023-07-24T16:10:03;18.50;99.90
42615;DHT22;28754;47.700;7.924;2023-07-24T16:12:51;18.60;99.90
42615;DHT22;28754;47.700;7.924;2023-07-24T16:15:37;18.70;99.90
42615;DHT22;28754;47.700;7.924;2023-07-24T16:18:24;18.70;99.90
42615;DHT22;28754;47.700;7.924;2023-07-24T16:21:11;18.50;99.90
42615;DHT22;28754;47.700;7.924;2023-07-24T16:23:57;18.80;99.90
42615;DHT22;28754;47.700;7.924;2023-07-24T16:26:45;19.40;99.90
42615;DHT22;28754;47.700;7.924;2023-07-24T16:29:32;19.50;99.90
42615;DHT22;28754;47.700;7.924;2023-07-24T16:32:20;19.50;99.90
42615;DHT22;28754;47.700;7.924;2023-07-24T16:35:10;19.40;99.90
42615;DHT22;28754;47.700;7.924;2023-07-24T16:37:57;19.40;99.90
42615;DHT22;28754;47.700;7.924;2023-07-24T16:40:44;19.10;99.90
42615;DHT22;28754;47.700;7.924;2023-07-24T16:43:31;19.40;99.90
42615;DHT22;28754;47.700;7.924;2023-07-24T16:46:17;19.30;99.90
42615;DHT22;28754;47.700;7.924;2023-07-24T16:49:04;19.30;99.90
42615;DHT22;28754;47.700;7.924;2023-07-24T16:51:53;19.10;99.90
42615;DHT22;28754;47.700;7.924;2023-07-24T16:54:40;19.20;99.90
42615;DHT22;28754;47.700;7.924;2023-07-24T16:57:27;19.00;99.90
42615;DHT22;28754;47.700;7.924;2023-07-24T17:00:14;18.90;99.90
42615;DHT22;28754;47.700;7.924;2023-07-24T17:03:01;18.90;99.90
42615;DHT22;28754;47.700;7.924;2023-07-24T17:05:48;19.20;99.90
42615;DHT22;28754;47.700;7.924;2023-07-24T17:08:35;19.40;99.90
42615;DHT22;28754;47.700;7.924;2023-07-24T17:11:21;19.40;99.90
42615;DHT22;28754;47.700;7.924;2023-07-24T17:14:08;19.30;99.90
42615;DHT22;28754;47.700;7.924;2023-07-24T17:16:55;19.10;99.90
42615;DHT22;28754;47.700;7.924;2023-07-24T17:19:41;19.00;99.90
42615;DHT22;28754;47.700;7.924;2023-07-24T17:22:28;18.90;99.90
42615;DHT22;28754;47.700;7.924;2023-07-24T17:25:15;18.90;99.90
42615;DHT22;28754;47.700;7.924;2023-07-24T17:28:04;18.90;99.90
42615;DHT22;28754;47.700;7.924;2023-07-24T17:30:51;18.80;99.90
42615;DHT22;28754;47.700;7.924;2023-07-24T17:33:38;18.70;99.90
42615;DHT22;28754;47.700;7.924;2023-07-24T17:36:25;18.70;99.90
42615;DHT22;28754;47.700;7.924;2023-07-24T17:39:12;18.70;99.90
42615;DHT22;28754;47.700;7.924;2023-07-24T17:41:58;18.70;99.90
42615;DHT22;28754;47.700;7.924;2023-07-24T17:44:45;18.70;99.90
42615;DHT22;28754;47.700;7.924;2023-07-24T17:47:32;18.70;99.90
42615;DHT22;28754;47.700;7.924;2023-07-24T17:50:19;18.60;99.90
42615;DHT22;28754;47.700;7.924;2023-07-24T17:53:06;18.60;99.90
42615;DHT22;28754;47.700;7.924;2023-07-24T17:55:55;18.60;99.90
42615;DHT22;28754;47.700;7.924;2023-07-24T17:58:42;18.70;99.90
42615;DHT22;28754;47.700;7.924;2023-07-24T18:01:51;18.60;99.90
42615;DHT22;28754;47.700;7.924;2023-07-24T18:05:05;18.50;99.90
42615;DHT22;28754;47.700;7.924;2023-07-24T18:08:08;18.50;99.90
42615;DHT22;28754;47.700;7.924;2023-07-24T18:10:55;18.70;99.90
42615;DHT22;28754;47.700;7.924;2023-07-24T18:13:42;18.70;99.90
42615;DHT22;28754;47.700;7.924;2023-07-24T18:16:34;18.70;99.90
42615;DHT22;28754;47.700;7.924;2023-07-24T18:19:23;18.70;99.90